TFM - Tactical Decision Aid (Experimental) INFO Settings
ID: Runway Winds: CIG/VIS Threshold: METAR Board: Map:

KAGS - Augusta Rgnl

Updated at: 0157 UTC 17 Oct 2017
Latest TAF at: 0152 UTC 17 Oct 2017

TAF Board

Time0153Z17/02Z17/03Z17/04Z17/05Z17/06Z17/07Z17/08Z17/09Z17/10Z17/11Z17/12Z17/13Z17/14Z
TypeOBSPRVLPRVLPRVLPRVLPRVLPRVLPRVLPRVLPRVLPRVLPRVLPRVLPRVL
VIS10>6>6>6>6>6>6>6>6>6>6>6>6>6
CIG----------------------------
CoverCLRSCTSCTSCTSCTSCTSCTSCTSCTSCTSCTSCTSCTSCT
FltCatVFRVFRVFRVFRVFRVFRVFRVFRVFRVFRVFRVFRVFRVFR
WX----------------------------
WDir5020202020202020202020202020
WSpd87777777777777
WGst----------------------------
TAF
KAGS 170152Z 1702/1724 02007KT P6SM SCT250 WS015/01035KT
  FM171500 05010G18KT P6SM SKC
  FM172200 04006KT P6SM SKC


METAR
KAGS 170153Z 05008KT 10SM CLR 18/12 A3017 RMK AO2 SLP214 T01780122
KAGS 170053Z 05008KT 10SM CLR 19/14 A3014 RMK AO2 SLP203 T01940139

TAF/METAR Board Legend

Potential Impact
  None Marginal Slight Moderate High
Visibility (sm) >5 3≤X≤5 2≤X<3 0.5≤X<2 <0.5
Ceiling (100 ft) >30 10≤X≤30 7≤X<10 2≤X<7 <2
Wind Speed (kt) <10 10≤X<20 20≤X<30 ≥30
Wind Gust (kt) <15 15≤X<25 25≤X<35 ≥35
Weather No Wx Reported VCTS -TS,-FZRA TS,FZRA +TS,+FZRA